sensor_id;sensor_type;location;lat;lon;timestamp;temperature;humidity
16038;DHT22;8123;50.906;6.172;2023-05-10T00:01:23;13.30;99.90
16038;DHT22;8123;50.906;6.172;2023-05-10T00:03:48;13.30;99.90
16038;DHT22;8123;50.906;6.172;2023-05-10T00:06:14;13.30;99.90
16038;DHT22;8123;50.906;6.172;2023-05-10T00:08:40;13.20;99.90
16038;DHT22;8123;50.906;6.172;2023-05-10T00:11:05;13.20;99.90
16038;DHT22;8123;50.906;6.172;2023-05-10T00:13:31;13.30;99.90
16038;DHT22;8123;50.906;6.172;2023-05-10T00:15:57;13.20;99.90
16038;DHT22;8123;50.906;6.172;2023-05-10T00:18:23;13.20;99.90
16038;DHT22;8123;50.906;6.172;2023-05-10T00:20:48;13.20;99.90
16038;DHT22;8123;50.906;6.172;2023-05-10T00:23:14;13.20;99.90
16038;DHT22;8123;50.906;6.172;2023-05-10T00:25:40;13.20;99.90
16038;DHT22;8123;50.906;6.172;2023-05-10T00:28:05;13.20;99.90
16038;DHT22;8123;50.906;6.172;2023-05-10T00:30:31;13.20;99.90
16038;DHT22;8123;50.906;6.172;2023-05-10T00:32:56;13.20;99.90
16038;DHT22;8123;50.906;6.172;2023-05-10T00:35:22;13.20;99.90
16038;DHT22;8123;50.906;6.172;2023-05-10T00:37:48;13.20;99.90
16038;DHT22;8123;50.906;6.172;2023-05-10T00:40:14;13.20;99.90
16038;DHT22;8123;50.906;6.172;2023-05-10T00:42:39;13.20;99.90
16038;DHT22;8123;50.906;6.172;2023-05-10T00:45:07;13.20;99.90
16038;DHT22;8123;50.906;6.172;2023-05-10T00:47:34;13.20;99.90
16038;DHT22;8123;50.906;6.172;2023-05-10T00:50:00;13.20;99.90
16038;DHT22;8123;50.906;6.172;2023-05-10T00:52:29;13.20;99.90
16038;DHT22;8123;50.906;6.172;2023-05-10T00:54:56;13.20;99.90
16038;DHT22;8123;50.906;6.172;2023-05-10T00:57:22;13.20;99.90
16038;DHT22;8123;50.906;6.172;2023-05-10T00:59:48;13.20;99.90
16038;DHT22;8123;50.906;6.172;2023-05-10T01:02:14;13.20;99.90
16038;DHT22;8123;50.906;6.172;2023-05-10T01:04:39;13.20;99.90
16038;DHT22;8123;50.906;6.172;2023-05-10T01:07:05;13.20;99.90
16038;DHT22;8123;50.906;6.172;2023-05-10T01:09:32;13.20;99.90
16038;DHT22;8123;50.906;6.172;2023-05-10T01:11:59;13.10;99.90
16038;DHT22;8123;50.906;6.172;2023-05-10T01:14:26;13.10;99.90
16038;DHT22;8123;50.906;6.172;2023-05-10T01:16:52;13.10;99.90
16038;DHT22;8123;50.906;6.172;2023-05-10T01:19:22;13.20;99.90
16038;DHT22;8123;50.906;6.172;2023-05-10T01:21:58;13.20;99.90
16038;DHT22;8123;50.906;6.172;2023-05-10T01:38:47;13.30;99.90
16038;DHT22;8123;50.906;6.172;2023-05-10T01:44:10;13.30;99.90
16038;DHT22;8123;50.906;6.172;2023-05-10T01:46:39;13.20;99.90
16038;DHT22;8123;50.906;6.172;2023-05-10T01:49:20;13.30;99.90
16038;DHT22;8123;50.906;6.172;2023-05-10T01:51:49;13.60;99.90
16038;DHT22;8123;50.906;6.172;2023-05-10T01:54:19;13.30;99.90
16038;DHT22;8123;50.906;6.172;2023-05-10T01:56:48;13.30;99.90
16038;DHT22;8123;50.906;6.172;2023-05-10T01:59:18;13.30;99.90
16038;DHT22;8123;50.906;6.172;2023-05-10T02:01:45;13.30;99.90
16038;DHT22;8123;50.906;6.172;2023-05-10T02:04:15;13.30;99.90
16038;DHT22;8123;50.906;6.172;2023-05-10T02:06:42;13.20;99.90
16038;DHT22;8123;50.906;6.172;2023-05-10T02:09:10;13.30;99.90
16038;DHT22;8123;50.906;6.172;2023-05-10T02:11:38;13.20;99.90
16038;DHT22;8123;50.906;6.172;2023-05-10T02:14:07;13.20;99.90
16038;DHT22;8123;50.906;6.172;2023-05-10T02:16:34;13.20;99.90
16038;DHT22;8123;50.906;6.172;2023-05-10T02:19:01;13.30;99.90
16038;DHT22;8123;50.906;6.172;2023-05-10T02:21:28;13.20;99.90
16038;DHT22;8123;50.906;6.172;2023-05-10T02:23:56;13.20;99.90
16038;DHT22;8123;50.906;6.172;2023-05-10T02:26:23;13.20;99.90
16038;DHT22;8123;50.906;6.172;2023-05-10T02:28:50;13.20;99.90
16038;DHT22;8123;50.906;6.172;2023-05-10T02:31:17;13.20;99.90
16038;DHT22;8123;50.906;6.172;2023-05-10T02:33:44;13.20;99.90
16038;DHT22;8123;50.906;6.172;2023-05-10T02:36:12;13.10;99.90
16038;DHT22;8123;50.906;6.172;2023-05-10T02:38:39;13.10;99.90
16038;DHT22;8123;50.906;6.172;2023-05-10T02:41:08;13.10;99.90
16038;DHT22;8123;50.906;6.172;2023-05-10T02:43:36;13.10;99.90
16038;DHT22;8123;50.906;6.172;2023-05-10T02:46:03;13.00;99.90
16038;DHT22;8123;50.906;6.172;2023-05-10T02:48:29;13.00;99.90
16038;DHT22;8123;50.906;6.172;2023-05-10T02:50:56;13.00;99.90
16038;DHT22;8123;50.906;6.172;2023-05-10T02:53:31;13.00;99.90
16038;DHT22;8123;50.906;6.172;2023-05-10T02:55:59;13.10;99.90
16038;DHT22;8123;50.906;6.172;2023-05-10T02:58:26;13.00;99.90
16038;DHT22;8123;50.906;6.172;2023-05-10T03:00:52;13.00;99.90
16038;DHT22;8123;50.906;6.172;2023-05-10T03:03:17;13.10;99.90
16038;DHT22;8123;50.906;6.172;2023-05-10T03:05:43;13.00;99.90
16038;DHT22;8123;50.906;6.172;2023-05-10T03:08:09;13.00;99.90
16038;DHT22;8123;50.906;6.172;2023-05-10T03:13:48;13.00;99.90
16038;DHT22;8123;50.906;6.172;2023-05-10T03:16:24;13.00;99.90
16038;DHT22;8123;50.906;6.172;2023-05-10T03:18:58;12.90;99.90
16038;DHT22;8123;50.906;6.172;2023-05-10T03:21:28;13.00;99.90
16038;DHT22;8123;50.906;6.172;2023-05-10T03:24:02;13.00;99.90
16038;DHT22;8123;50.906;6.172;2023-05-10T03:26:30;13.00;99.90
16038;DHT22;8123;50.906;6.172;2023-05-10T03:28:57;13.00;99.90
16038;DHT22;8123;50.906;6.172;2023-05-10T03:31:24;12.90;99.90
16038;DHT22;8123;50.906;6.172;2023-05-10T03:33:51;12.90;99.90
16038;DHT22;8123;50.906;6.172;2023-05-10T03:36:18;12.80;99.90
16038;DHT22;8123;50.906;6.172;2023-05-10T03:38:43;12.80;99.90
16038;DHT22;8123;50.906;6.172;2023-05-10T03:41:09;12.80;99.90
16038;DHT22;8123;50.906;6.172;2023-05-10T03:43:35;12.80;99.90
16038;DHT22;8123;50.906;6.172;2023-05-10T03:46:03;12.80;99.90
16038;DHT22;8123;50.906;6.172;2023-05-10T03:48:29;12.80;99.90
16038;DHT22;8123;50.906;6.172;2023-05-10T03:50:55;12.80;99.90
16038;DHT22;8123;50.906;6.172;2023-05-10T03:53:21;12.80;99.90
16038;DHT22;8123;50.906;6.172;2023-05-10T03:55:48;12.80;99.90
16038;DHT22;8123;50.906;6.172;2023-05-10T03:58:13;12.80;99.90
16038;DHT22;8123;50.906;6.172;2023-05-10T04:00:39;12.80;99.90
16038;DHT22;8123;50.906;6.172;2023-05-10T04:03:09;12.80;99.90
16038;DHT22;8123;50.906;6.172;2023-05-10T04:05:35;12.80;99.90
16038;DHT22;8123;50.906;6.172;2023-05-10T04:08:01;12.80;99.90
16038;DHT22;8123;50.906;6.172;2023-05-10T04:10:27;12.80;99.90
16038;DHT22;8123;50.906;6.172;2023-05-10T04:12:52;12.80;99.90
16038;DHT22;8123;50.906;6.172;2023-05-10T04:15:18;12.80;99.90
16038;DHT22;8123;50.906;6.172;2023-05-10T04:17:44;12.80;99.90
16038;DHT22;8123;50.906;6.172;2023-05-10T04:20:10;12.80;99.90
16038;DHT22;8123;50.906;6.172;2023-05-10T04:22:36;12.80;99.90
16038;DHT22;8123;50.906;6.172;2023-05-10T04:25:01;12.80;99.90
16038;DHT22;8123;50.906;6.172;2023-05-10T04:27:27;12.80;99.90
16038;DHT22;8123;50.906;6.172;2023-05-10T04:29:53;12.80;99.90
16038;DHT22;8123;50.906;6.172;2023-05-10T04:32:18;12.80;99.90
16038;DHT22;8123;50.906;6.172;2023-05-10T04:34:45;12.80;99.90
16038;DHT22;8123;50.906;6.172;2023-05-10T04:37:11;12.80;99.90
16038;DHT22;8123;50.906;6.172;2023-05-10T04:39:36;12.80;99.90
16038;DHT22;8123;50.906;6.172;2023-05-10T04:42:03;12.70;99.90
16038;DHT22;8123;50.906;6.172;2023-05-10T04:44:31;12.80;99.90
16038;DHT22;8123;50.906;6.172;2023-05-10T04:46:56;12.80;99.90
16038;DHT22;8123;50.906;6.172;2023-05-10T04:49:22;12.70;99.90
16038;DHT22;8123;50.906;6.172;2023-05-10T04:51:48;12.70;99.90
16038;DHT22;8123;50.906;6.172;2023-05-10T04:54:13;12.80;99.90
16038;DHT22;8123;50.906;6.172;2023-05-10T04:56:39;12.80;99.90
16038;DHT22;8123;50.906;6.172;2023-05-10T04:59:06;12.80;99.90
16038;DHT22;8123;50.906;6.172;2023-05-10T05:01:32;12.70;99.90
16038;DHT22;8123;50.906;6.172;2023-05-10T05:03:58;12.80;99.90
16038;DHT22;8123;50.906;6.172;2023-05-10T05:06:23;12.80;99.90
16038;DHT22;8123;50.906;6.172;2023-05-10T05:08:50;12.80;99.90
16038;DHT22;8123;50.906;6.172;2023-05-10T05:11:17;12.90;99.90
16038;DHT22;8123;50.906;6.172;2023-05-10T05:13:42;12.90;99.90
16038;DHT22;8123;50.906;6.172;2023-05-10T05:16:08;12.80;99.90
16038;DHT22;8123;50.906;6.172;2023-05-10T05:18:34;12.80;99.90
16038;DHT22;8123;50.906;6.172;2023-05-10T05:21:00;12.80;99.90
16038;DHT22;8123;50.906;6.172;2023-05-10T05:23:26;12.80;99.90
16038;DHT22;8123;50.906;6.172;2023-05-10T05:25:53;12.90;99.90
16038;DHT22;8123;50.906;6.172;2023-05-10T05:28:19;12.80;99.90
16038;DHT22;8123;50.906;6.172;2023-05-10T05:30:45;12.90;99.90
16038;DHT22;8123;50.906;6.172;2023-05-10T05:33:13;12.90;99.90
16038;DHT22;8123;50.906;6.172;2023-05-10T05:35:38;12.90;99.90
16038;DHT22;8123;50.906;6.172;2023-05-10T05:38:04;12.90;99.90
16038;DHT22;8123;50.906;6.172;2023-05-10T05:40:30;12.90;99.90
16038;DHT22;8123;50.906;6.172;2023-05-10T05:42:56;12.90;99.90
16038;DHT22;8123;50.906;6.172;2023-05-10T05:45:22;13.00;99.90
16038;DHT22;8123;50.906;6.172;2023-05-10T05:47:47;13.00;99.90
16038;DHT22;8123;50.906;6.172;2023-05-10T05:50:13;13.00;99.90
16038;DHT22;8123;50.906;6.172;2023-05-10T05:52:39;13.00;99.90
16038;DHT22;8123;50.906;6.172;2023-05-10T05:55:05;13.10;99.90
16038;DHT22;8123;50.906;6.172;2023-05-10T05:57:31;13.10;99.90
16038;DHT22;8123;50.906;6.172;2023-05-10T05:59:56;13.10;99.90
16038;DHT22;8123;50.906;6.172;2023-05-10T06:02:22;13.00;99.90
16038;DHT22;8123;50.906;6.172;2023-05-10T06:04:48;13.10;99.90
16038;DHT22;8123;50.906;6.172;2023-05-10T06:07:13;13.10;99.90
16038;DHT22;8123;50.906;6.172;2023-05-10T06:09:39;13.10;99.90
16038;DHT22;8123;50.906;6.172;2023-05-10T06:12:05;13.10;99.90
16038;DHT22;8123;50.906;6.172;2023-05-10T06:14:30;13.20;99.90
16038;DHT22;8123;50.906;6.172;2023-05-10T06:16:56;13.10;99.90
16038;DHT22;8123;50.906;6.172;2023-05-10T06:19:21;13.20;99.90
16038;DHT22;8123;50.906;6.172;2023-05-10T06:21:48;13.10;99.90
16038;DHT22;8123;50.906;6.172;2023-05-10T06:24:14;13.10;99.90
16038;DHT22;8123;50.906;6.172;2023-05-10T06:26:39;13.10;99.90
16038;DHT22;8123;50.906;6.172;2023-05-10T06:29:05;13.10;99.90
16038;DHT22;8123;50.906;6.172;2023-05-10T06:31:31;13.20;99.90
16038;DHT22;8123;50.906;6.172;2023-05-10T06:33:56;13.20;99.90
16038;DHT22;8123;50.906;6.172;2023-05-10T06:36:23;13.20;99.90
16038;DHT22;8123;50.906;6.172;2023-05-10T06:38:50;13.30;99.90
16038;DHT22;8123;50.906;6.172;2023-05-10T06:41:16;13.30;99.90
16038;DHT22;8123;50.906;6.172;2023-05-10T06:43:42;13.30;99.90
16038;DHT22;8123;50.906;6.172;2023-05-10T06:46:08;13.40;99.90
16038;DHT22;8123;50.906;6.172;2023-05-10T06:48:34;13.40;99.90
16038;DHT22;8123;50.906;6.172;2023-05-10T06:51:00;13.40;99.90
16038;DHT22;8123;50.906;6.172;2023-05-10T06:53:26;13.40;99.90
16038;DHT22;8123;50.906;6.172;2023-05-10T06:55:51;13.50;99.90
16038;DHT22;8123;50.906;6.172;2023-05-10T06:58:17;13.50;99.90
16038;DHT22;8123;50.906;6.172;2023-05-10T07:00:43;13.50;99.90
16038;DHT22;8123;50.906;6.172;2023-05-10T07:03:10;13.40;99.90
16038;DHT22;8123;50.906;6.172;2023-05-10T07:05:36;13.50;99.90
16038;DHT22;8123;50.906;6.172;2023-05-10T07:08:01;13.60;99.90
16038;DHT22;8123;50.906;6.172;2023-05-10T07:10:27;13.40;99.90
16038;DHT22;8123;50.906;6.172;2023-05-10T07:12:53;13.30;99.90
16038;DHT22;8123;50.906;6.172;2023-05-10T07:15:18;13.30;99.90
16038;DHT22;8123;50.906;6.172;2023-05-10T07:17:44;13.30;99.90
16038;DHT22;8123;50.906;6.172;2023-05-10T07:20:11;13.30;99.90
16038;DHT22;8123;50.906;6.172;2023-05-10T07:22:36;13.40;99.90
16038;DHT22;8123;50.906;6.172;2023-05-10T07:25:02;13.30;99.90
16038;DHT22;8123;50.906;6.172;2023-05-10T07:27:28;13.40;99.90
16038;DHT22;8123;50.906;6.172;2023-05-10T07:29:53;13.30;99.90
16038;DHT22;8123;50.906;6.172;2023-05-10T07:32:20;13.30;99.90
16038;DHT22;8123;50.906;6.172;2023-05-10T07:34:46;13.30;99.90
16038;DHT22;8123;50.906;6.172;2023-05-10T07:37:11;13.30;99.90
16038;DHT22;8123;50.906;6.172;2023-05-10T07:39:37;13.30;99.90
16038;DHT22;8123;50.906;6.172;2023-05-10T07:42:03;13.20;99.90
16038;DHT22;8123;50.906;6.172;2023-05-10T07:44:28;13.20;99.90
16038;DHT22;8123;50.906;6.172;2023-05-10T07:46:54;13.20;99.90
16038;DHT22;8123;50.906;6.172;2023-05-10T07:49:21;13.20;99.90
16038;DHT22;8123;50.906;6.172;2023-05-10T07:51:49;13.00;99.90
16038;DHT22;8123;50.906;6.172;2023-05-10T07:54:15;13.00;99.90
16038;DHT22;8123;50.906;6.172;2023-05-10T07:56:41;12.90;99.90
16038;DHT22;8123;50.906;6.172;2023-05-10T07:59:15;12.90;99.90
16038;DHT22;8123;50.906;6.172;2023-05-10T08:01:41;12.80;99.90
16038;DHT22;8123;50.906;6.172;2023-05-10T08:04:07;12.80;99.90
16038;DHT22;8123;50.906;6.172;2023-05-10T08:06:32;12.80;99.90
16038;DHT22;8123;50.906;6.172;2023-05-10T08:08:58;12.90;99.90
16038;DHT22;8123;50.906;6.172;2023-05-10T08:11:24;13.00;99.90
16038;DHT22;8123;50.906;6.172;2023-05-10T08:13:50;13.00;99.90
16038;DHT22;8123;50.906;6.172;2023-05-10T08:16:16;13.00;99.90
16038;DHT22;8123;50.906;6.172;2023-05-10T08:18:46;13.10;99.90
16038;DHT22;8123;50.906;6.172;2023-05-10T08:21:13;13.10;99.90
16038;DHT22;8123;50.906;6.172;2023-05-10T08:23:42;13.00;99.90
16038;DHT22;8123;50.906;6.172;2023-05-10T08:26:09;13.00;99.90
16038;DHT22;8123;50.906;6.172;2023-05-10T08:28:34;13.10;99.90
16038;DHT22;8123;50.906;6.172;2023-05-10T08:31:00;13.10;99.90
16038;DHT22;8123;50.906;6.172;2023-05-10T08:33:26;13.20;99.90
16038;DHT22;8123;50.906;6.172;2023-05-10T08:35:51;13.20;99.90
16038;DHT22;8123;50.906;6.172;2023-05-10T08:38:18;13.30;99.90
16038;DHT22;8123;50.906;6.172;2023-05-10T08:40:44;13.40;99.90
16038;DHT22;8123;50.906;6.172;2023-05-10T08:43:11;13.40;99.90
16038;DHT22;8123;50.906;6.172;2023-05-10T08:45:41;13.40;99.90
16038;DHT22;8123;50.906;6.172;2023-05-10T08:48:09;13.20;99.90
16038;DHT22;8123;50.906;6.172;2023-05-10T08:50:36;13.30;99.90
16038;DHT22;8123;50.906;6.172;2023-05-10T08:53:13;13.40;99.90
16038;DHT22;8123;50.906;6.172;2023-05-10T08:55:40;13.40;99.90
16038;DHT22;8123;50.906;6.172;2023-05-10T08:58:08;13.40;99.90
16038;DHT22;8123;50.906;6.172;2023-05-10T09:00:34;13.40;99.90
16038;DHT22;8123;50.906;6.172;2023-05-10T09:03:01;13.30;99.90
16038;DHT22;8123;50.906;6.172;2023-05-10T09:05:27;13.30;99.90
16038;DHT22;8123;50.906;6.172;2023-05-10T09:07:53;13.40;99.90
16038;DHT22;8123;50.906;6.172;2023-05-10T09:10:19;13.20;99.90
16038;DHT22;8123;50.906;6.172;2023-05-10T09:12:45;13.10;99.90
16038;DHT22;8123;50.906;6.172;2023-05-10T09:15:14;13.20;99.90
16038;DHT22;8123;50.906;6.172;2023-05-10T09:17:40;13.30;99.90
16038;DHT22;8123;50.906;6.172;2023-05-10T09:20:07;13.30;99.90
16038;DHT22;8123;50.906;6.172;2023-05-10T09:22:33;13.20;99.90
16038;DHT22;8123;50.906;6.172;2023-05-10T09:25:13;13.20;99.90
16038;DHT22;8123;50.906;6.172;2023-05-10T09:27:43;13.20;99.90
16038;DHT22;8123;50.906;6.172;2023-05-10T09:30:10;13.10;99.90
16038;DHT22;8123;50.906;6.172;2023-05-10T09:32:44;13.10;99.90
16038;DHT22;8123;50.906;6.172;2023-05-10T09:35:11;13.10;99.90
16038;DHT22;8123;50.906;6.172;2023-05-10T09:37:42;13.10;99.90
16038;DHT22;8123;50.906;6.172;2023-05-10T09:40:12;13.20;99.90
16038;DHT22;8123;50.906;6.172;2023-05-10T09:42:38;13.30;99.90
16038;DHT22;8123;50.906;6.172;2023-05-10T09:45:05;13.30;99.90
16038;DHT22;8123;50.906;6.172;2023-05-10T09:47:34;13.30;99.90
16038;DHT22;8123;50.906;6.172;2023-05-10T09:50:01;13.40;99.90
16038;DHT22;8123;50.906;6.172;2023-05-10T09:52:31;13.40;99.90
16038;DHT22;8123;50.906;6.172;2023-05-10T09:55:12;13.60;99.90
16038;DHT22;8123;50.906;6.172;2023-05-10T09:57:38;13.60;99.90
16038;DHT22;8123;50.906;6.172;2023-05-10T10:00:05;13.70;99.90
16038;DHT22;8123;50.906;6.172;2023-05-10T10:02:31;13.70;99.90
16038;DHT22;8123;50.906;6.172;2023-05-10T10:04:57;13.70;99.90
16038;DHT22;8123;50.906;6.172;2023-05-10T10:07:24;13.80;99.90
16038;DHT22;8123;50.906;6.172;2023-05-10T10:09:54;13.80;99.90
16038;DHT22;8123;50.906;6.172;2023-05-10T10:12:20;13.90;99.90
16038;DHT22;8123;50.906;6.172;2023-05-10T10:14:47;13.90;99.90
16038;DHT22;8123;50.906;6.172;2023-05-10T10:17:13;13.90;99.90
16038;DHT22;8123;50.906;6.172;2023-05-10T10:19:39;13.90;99.90
16038;DHT22;8123;50.906;6.172;2023-05-10T10:22:05;13.90;99.90
16038;DHT22;8123;50.906;6.172;2023-05-10T10:24:31;14.00;99.90
16038;DHT22;8123;50.906;6.172;2023-05-10T10:27:23;14.10;99.90
16038;DHT22;8123;50.906;6.172;2023-05-10T10:30:04;14.00;99.90
16038;DHT22;8123;50.906;6.172;2023-05-10T10:35:28;14.20;99.90
16038;DHT22;8123;50.906;6.172;2023-05-10T10:37:54;14.30;99.90
16038;DHT22;8123;50.906;6.172;2023-05-10T10:42:48;14.40;99.90
16038;DHT22;8123;50.906;6.172;2023-05-10T10:45:15;14.40;99.90
16038;DHT22;8123;50.906;6.172;2023-05-10T10:47:41;14.30;99.90
16038;DHT22;8123;50.906;6.172;2023-05-10T10:50:08;14.10;99.90
16038;DHT22;8123;50.906;6.172;2023-05-10T10:52:39;14.10;99.90
16038;DHT22;8123;50.906;6.172;2023-05-10T10:55:21;14.00;99.90
16038;DHT22;8123;50.906;6.172;2023-05-10T10:57:56;14.10;99.90
16038;DHT22;8123;50.906;6.172;2023-05-10T11:00:35;14.20;99.90
16038;DHT22;8123;50.906;6.172;2023-05-10T11:03:12;14.10;99.90
16038;DHT22;8123;50.906;6.172;2023-05-10T11:05:44;14.30;99.90
16038;DHT22;8123;50.906;6.172;2023-05-10T11:08:19;14.30;99.90
16038;DHT22;8123;50.906;6.172;2023-05-10T11:13:46;14.40;99.90
16038;DHT22;8123;50.906;6.172;2023-05-10T11:16:18;14.50;99.90
16038;DHT22;8123;50.906;6.172;2023-05-10T11:19:29;14.60;99.90
16038;DHT22;8123;50.906;6.172;2023-05-10T11:21:50;14.70;99.90
16038;DHT22;8123;50.906;6.172;2023-05-10T11:24:20;14.90;99.90
16038;DHT22;8123;50.906;6.172;2023-05-10T11:26:46;14.90;99.90
16038;DHT22;8123;50.906;6.172;2023-05-10T11:29:13;14.90;99.90
16038;DHT22;8123;50.906;6.172;2023-05-10T11:31:46;15.00;99.90
16038;DHT22;8123;50.906;6.172;2023-05-10T11:34:27;15.00;99.90
16038;DHT22;8123;50.906;6.172;2023-05-10T11:36:56;15.00;99.90
16038;DHT22;8123;50.906;6.172;2023-05-10T11:39:28;15.00;99.90
16038;DHT22;8123;50.906;6.172;2023-05-10T11:41:54;15.00;99.90
16038;DHT22;8123;50.906;6.172;2023-05-10T11:44:20;15.00;99.90
16038;DHT22;8123;50.906;6.172;2023-05-10T11:46:45;14.90;99.90
16038;DHT22;8123;50.906;6.172;2023-05-10T11:49:11;15.00;99.90
16038;DHT22;8123;50.906;6.172;2023-05-10T11:51:38;15.10;99.90
16038;DHT22;8123;50.906;6.172;2023-05-10T11:54:10;15.20;99.90
16038;DHT22;8123;50.906;6.172;2023-05-10T11:56:39;15.20;99.90
16038;DHT22;8123;50.906;6.172;2023-05-10T11:59:05;15.30;99.90
16038;DHT22;8123;50.906;6.172;2023-05-10T12:01:31;15.20;99.90
16038;DHT22;8123;50.906;6.172;2023-05-10T12:03:57;15.40;99.90
16038;DHT22;8123;50.906;6.172;2023-05-10T12:06:30;15.40;99.90
16038;DHT22;8123;50.906;6.172;2023-05-10T12:08:57;15.40;99.90
16038;DHT22;8123;50.906;6.172;2023-05-10T12:11:27;15.50;99.90
16038;DHT22;8123;50.906;6.172;2023-05-10T12:13:54;15.60;99.90
16038;DHT22;8123;50.906;6.172;2023-05-10T12:16:22;15.60;99.90
16038;DHT22;8123;50.906;6.172;2023-05-10T12:18:52;15.60;99.90
16038;DHT22;8123;50.906;6.172;2023-05-10T12:21:19;15.60;99.90
16038;DHT22;8123;50.906;6.172;2023-05-10T12:23:46;15.60;99.90
16038;DHT22;8123;50.906;6.172;2023-05-10T12:26:12;15.70;99.90
16038;DHT22;8123;50.906;6.172;2023-05-10T12:28:38;15.80;99.90
16038;DHT22;8123;50.906;6.172;2023-05-10T12:31:05;15.90;99.90
16038;DHT22;8123;50.906;6.172;2023-05-10T12:33:42;15.90;99.90
16038;DHT22;8123;50.906;6.172;2023-05-10T12:36:12;16.00;99.90
16038;DHT22;8123;50.906;6.172;2023-05-10T12:38:39;16.10;99.90
16038;DHT22;8123;50.906;6.172;2023-05-10T12:41:12;16.00;99.90
16038;DHT22;8123;50.906;6.172;2023-05-10T12:43:39;16.00;99.90
16038;DHT22;8123;50.906;6.172;2023-05-10T12:46:07;15.90;99.90
16038;DHT22;8123;50.906;6.172;2023-05-10T12:48:33;15.90;99.90
16038;DHT22;8123;50.906;6.172;2023-05-10T12:51:00;16.00;99.90
16038;DHT22;8123;50.906;6.172;2023-05-10T12:53:25;16.00;99.90
16038;DHT22;8123;50.906;6.172;2023-05-10T12:55:52;16.00;99.90
16038;DHT22;8123;50.906;6.172;2023-05-10T12:58:19;16.10;99.90
16038;DHT22;8123;50.906;6.172;2023-05-10T13:00:45;16.20;99.90
16038;DHT22;8123;50.906;6.172;2023-05-10T13:03:11;16.20;99.90
16038;DHT22;8123;50.906;6.172;2023-05-10T13:05:36;16.30;99.90
16038;DHT22;8123;50.906;6.172;2023-05-10T13:08:02;16.40;99.90
16038;DHT22;8123;50.906;6.172;2023-05-10T13:10:31;16.40;99.90
16038;DHT22;8123;50.906;6.172;2023-05-10T13:13:00;16.40;99.90
16038;DHT22;8123;50.906;6.172;2023-05-10T13:15:26;16.30;99.90
16038;DHT22;8123;50.906;6.172;2023-05-10T13:17:52;16.40;99.90
16038;DHT22;8123;50.906;6.172;2023-05-10T13:20:18;16.40;99.90
16038;DHT22;8123;50.906;6.172;2023-05-10T13:22:44;16.40;99.90
16038;DHT22;8123;50.906;6.172;2023-05-10T13:25:10;16.40;99.90
16038;DHT22;8123;50.906;6.172;2023-05-10T13:27:37;16.50;99.90
16038;DHT22;8123;50.906;6.172;2023-05-10T13:30:03;16.60;99.90
16038;DHT22;8123;50.906;6.172;2023-05-10T13:32:29;16.70;99.90
16038;DHT22;8123;50.906;6.172;2023-05-10T13:34:55;16.70;99.90
16038;DHT22;8123;50.906;6.172;2023-05-10T13:37:21;16.60;99.90
16038;DHT22;8123;50.906;6.172;2023-05-10T13:39:47;16.60;99.90
16038;DHT22;8123;50.906;6.172;2023-05-10T13:42:13;16.50;99.90
16038;DHT22;8123;50.906;6.172;2023-05-10T13:44:39;16.60;99.90
16038;DHT22;8123;50.906;6.172;2023-05-10T13:47:05;16.60;99.90
16038;DHT22;8123;50.906;6.172;2023-05-10T13:49:31;16.60;99.90
16038;DHT22;8123;50.906;6.172;2023-05-10T13:51:57;16.50;99.90
16038;DHT22;8123;50.906;6.172;2023-05-10T13:54:23;16.50;99.90
16038;DHT22;8123;50.906;6.172;2023-05-10T13:56:49;16.60;99.90
16038;DHT22;8123;50.906;6.172;2023-05-10T13:59:15;16.60;99.90
16038;DHT22;8123;50.906;6.172;2023-05-10T14:01:41;16.60;99.90
16038;DHT22;8123;50.906;6.172;2023-05-10T14:04:08;16.70;99.90
16038;DHT22;8123;50.906;6.172;2023-05-10T14:06:36;16.60;99.90
16038;DHT22;8123;50.906;6.172;2023-05-10T14:09:02;16.50;99.90
16038;DHT22;8123;50.906;6.172;2023-05-10T14:11:28;16.50;99.90
16038;DHT22;8123;50.906;6.172;2023-05-10T14:13:54;16.40;99.90
16038;DHT22;8123;50.906;6.172;2023-05-10T14:16:20;16.40;99.90
16038;DHT22;8123;50.906;6.172;2023-05-10T14:18:46;16.40;99.90
16038;DHT22;8123;50.906;6.172;2023-05-10T14:21:12;16.40;99.90
16038;DHT22;8123;50.906;6.172;2023-05-10T14:23:39;16.30;99.90
16038;DHT22;8123;50.906;6.172;2023-05-10T14:26:04;16.40;99.90
16038;DHT22;8123;50.906;6.172;2023-05-10T14:28:30;16.50;99.90
16038;DHT22;8123;50.906;6.172;2023-05-10T14:30:56;16.50;99.90
16038;DHT22;8123;50.906;6.172;2023-05-10T14:33:21;16.50;99.90
16038;DHT22;8123;50.906;6.172;2023-05-10T14:35:47;16.50;99.90
16038;DHT22;8123;50.906;6.172;2023-05-10T14:38:13;16.50;99.90
16038;DHT22;8123;50.906;6.172;2023-05-10T14:40:39;16.60;99.90
16038;DHT22;8123;50.906;6.172;2023-05-10T14:43:05;16.60;99.90
16038;DHT22;8123;50.906;6.172;2023-05-10T14:45:31;16.40;99.90
16038;DHT22;8123;50.906;6.172;2023-05-10T14:47:57;16.40;99.90
16038;DHT22;8123;50.906;6.172;2023-05-10T14:50:23;16.40;99.90
16038;DHT22;8123;50.906;6.172;2023-05-10T14:52:49;16.40;99.90
16038;DHT22;8123;50.906;6.172;2023-05-10T14:55:15;16.40;99.90
16038;DHT22;8123;50.906;6.172;2023-05-10T14:57:41;16.30;99.90
16038;DHT22;8123;50.906;6.172;2023-05-10T15:00:07;16.20;99.90
16038;DHT22;8123;50.906;6.172;2023-05-10T15:02:33;16.30;99.90
16038;DHT22;8123;50.906;6.172;2023-05-10T15:04:59;16.20;99.90
16038;DHT22;8123;50.906;6.172;2023-05-10T15:07:24;16.20;99.90
16038;DHT22;8123;50.906;6.172;2023-05-10T15:09:50;16.20;99.90
16038;DHT22;8123;50.906;6.172;2023-05-10T15:12:17;16.10;99.90
16038;DHT22;8123;50.906;6.172;2023-05-10T15:14:43;16.10;99.90
16038;DHT22;8123;50.906;6.172;2023-05-10T15:17:08;16.10;99.90
16038;DHT22;8123;50.906;6.172;2023-05-10T15:19:34;16.10;99.90
16038;DHT22;8123;50.906;6.172;2023-05-10T15:22:00;16.10;99.90
16038;DHT22;8123;50.906;6.172;2023-05-10T15:24:25;16.10;99.90
16038;DHT22;8123;50.906;6.172;2023-05-10T15:26:51;16.00;99.90
16038;DHT22;8123;50.906;6.172;2023-05-10T15:29:17;15.80;99.90
16038;DHT22;8123;50.906;6.172;2023-05-10T15:31:49;15.90;99.90
16038;DHT22;8123;50.906;6.172;2023-05-10T15:34:16;16.00;99.90
16038;DHT22;8123;50.906;6.172;2023-05-10T15:36:42;16.00;99.90
16038;DHT22;8123;50.906;6.172;2023-05-10T15:39:08;15.90;99.90
16038;DHT22;8123;50.906;6.172;2023-05-10T15:41:35;15.80;99.90
16038;DHT22;8123;50.906;6.172;2023-05-10T15:44:00;15.80;99.90
16038;DHT22;8123;50.906;6.172;2023-05-10T15:46:30;15.70;99.90
16038;DHT22;8123;50.906;6.172;2023-05-10T15:48:57;15.70;99.90
16038;DHT22;8123;50.906;6.172;2023-05-10T15:51:58;15.60;99.90
16038;DHT22;8123;50.906;6.172;2023-05-10T15:54:23;15.60;99.90
16038;DHT22;8123;50.906;6.172;2023-05-10T15:56:49;15.50;99.90
16038;DHT22;8123;50.906;6.172;2023-05-10T15:59:15;15.50;99.90
16038;DHT22;8123;50.906;6.172;2023-05-10T16:01:40;15.50;99.90
16038;DHT22;8123;50.906;6.172;2023-05-10T16:04:06;15.50;99.90
16038;DHT22;8123;50.906;6.172;2023-05-10T16:06:32;15.70;99.90
16038;DHT22;8123;50.906;6.172;2023-05-10T16:08:58;15.50;99.90
16038;DHT22;8123;50.906;6.172;2023-05-10T16:11:24;15.60;99.90
16038;DHT22;8123;50.906;6.172;2023-05-10T16:13:50;15.50;99.90